Time;durP1;ratioP1;P1;durP2;ratioP2;P2;SDS_P1;SDS_P2;PMS_P1;PMS_P2;Temp;Humidity;BMP_temperature;BMP_pressure;BME280_temperature;BME280_humidity;BME280_pressure;Samples;Min_cycle;Max_cycle;Signal;HPM_P1;HPM_P2
2021/08/03 00:02:25;;;;;;;4.72;3.70;;;;;;;;;;5002705;28;20056;-87
2021/08/03 00:04:55;;;;;;;4.50;3.53;;;;;;;;;;4997863;28;20042;-89
2021/08/03 00:07:22;;;;;;;8.25;4.03;;;;;;;;;;5009223;28;20115;-88
2021/08/03 00:09:49;;;;;;;14.45;7.22;;;;;;;;;;4993966;28;20046;-88
2021/08/03 00:12:16;;;;;;;8.82;4.50;;;;;;;;;;5000897;28;20524;-88
2021/08/03 00:14:48;;;;;;;5.03;3.40;;;;;;;;;;5008512;28;20085;-88
2021/08/03 00:17:19;;;;;;;4.63;3.15;;;;;;;;;;4995308;28;20065;-87
2021/08/03 00:19:46;;;;;;;5.93;3.42;;;;;;;;;;5012008;28;20058;-87
2021/08/03 00:22:13;;;;;;;5.32;3.47;;;;;;;;;;5025999;28;20132;-88
2021/08/03 00:24:39;;;;;;;4.55;3.10;;;;;;;;;;5025579;28;20072;-87
2021/08/03 00:27:06;;;;;;;5.15;3.90;;;;;;;;;;5010781;28;20066;-88
2021/08/03 00:29:33;;;;;;;4.38;3.22;;;;;;;;;;5016276;28;20130;-88
2021/08/03 00:32:00;;;;;;;5.63;3.25;;;;;;;;;;5022792;28;20060;-88
2021/08/03 00:34:27;;;;;;;3.97;2.97;;;;;;;;;;5007373;28;20054;-87
2021/08/03 00:36:54;;;;;;;4.53;3.10;;;;;;;;;;5025122;28;20099;-89
2021/08/03 00:39:22;;;;;;;6.28;3.47;;;;;;;;;;5019413;28;20049;-88
2021/08/03 00:41:52;;;;;;;4.43;3.53;;;;;;;;;;5014331;28;20050;-88
2021/08/03 00:44:19;;;;;;;5.80;3.40;;;;;;;;;;5015371;28;20052;-88
2021/08/03 00:46:45;;;;;;;4.32;3.30;;;;;;;;;;5013403;28;20054;-88
2021/08/03 00:49:11;;;;;;;5.55;3.28;;;;;;;;;;5017717;28;20119;-88
2021/08/03 00:51:37;;;;;;;6.90;3.42;;;;;;;;;;5019710;28;20057;-88
2021/08/03 00:54:04;;;;;;;6.80;3.50;;;;;;;;;;5014973;28;20406;-88
2021/08/03 00:56:31;;;;;;;4.80;3.53;;;;;;;;;;5018705;28;20050;-88
2021/08/03 00:58:57;;;;;;;6.72;4.40;;;;;;;;;;5014828;28;20056;-88
2021/08/03 01:01:23;;;;;;;5.30;3.90;;;;;;;;;;5046781;28;20061;-88
2021/08/03 01:03:49;;;;;;;5.97;3.35;;;;;;;;;;5015371;28;20086;-88
2021/08/03 01:06:15;;;;;;;7.78;3.80;;;;;;;;;;5005415;28;20062;-88
2021/08/03 01:09:00;;;;;;;4.88;3.30;;;;;;;;;;5009717;28;20545;-88
2021/08/03 01:11:45;;;;;;;9.20;4.50;;;;;;;;;;5017556;28;20129;-88
2021/08/03 01:14:16;;;;;;;10.52;6.40;;;;;;;;;;5018160;28;20060;-88
2021/08/03 01:17:02;;;;;;;12.10;6.68;;;;;;;;;;5011669;28;20049;-89
2021/08/03 01:19:41;;;;;;;10.52;5.75;;;;;;;;;;4997072;28;20137;-88
2021/08/03 01:22:22;;;;;;;14.52;7.22;;;;;;;;;;5013460;28;20052;-88
2021/08/03 01:24:53;;;;;;;12.07;6.13;;;;;;;;;;5014305;28;20056;-88
2021/08/03 01:27:20;;;;;;;9.50;5.72;;;;;;;;;;4997241;28;20395;-88
2021/08/03 01:29:47;;;;;;;10.00;6.40;;;;;;;;;;5015541;28;20071;-88
2021/08/03 01:32:16;;;;;;;11.15;5.85;;;;;;;;;;5038027;28;20060;-88
2021/08/03 01:34:46;;;;;;;8.45;5.22;;;;;;;;;;5016877;28;20128;-88
2021/08/03 01:37:17;;;;;;;8.38;5.45;;;;;;;;;;5019054;28;20111;-89
2021/08/03 01:39:46;;;;;;;8.55;4.35;;;;;;;;;;5029841;28;20053;-88
2021/08/03 01:42:15;;;;;;;5.57;3.90;;;;;;;;;;5014357;28;20058;-88
2021/08/03 01:44:42;;;;;;;7.57;3.83;;;;;;;;;;4999041;28;20049;-88
2021/08/03 01:47:08;;;;;;;5.32;3.90;;;;;;;;;;5016273;28;20041;-88
2021/08/03 01:49:36;;;;;;;4.63;3.80;;;;;;;;;;5019652;28;20116;-88
2021/08/03 01:52:05;;;;;;;7.85;5.25;;;;;;;;;;5008878;28;20489;-88
2021/08/03 01:54:32;;;;;;;16.80;9.88;;;;;;;;;;5020092;28;20512;-88
2021/08/03 01:56:59;;;;;;;9.43;5.68;;;;;;;;;;5012962;28;20100;-89
2021/08/03 01:59:25;;;;;;;6.32;4.40;;;;;;;;;;5016500;28;20061;-88
2021/08/03 02:01:52;;;;;;;5.55;4.15;;;;;;;;;;5016423;28;20084;-88
2021/08/03 02:04:20;;;;;;;5.90;3.83;;;;;;;;;;5021391;28;20042;-88
2021/08/03 02:06:49;;;;;;;5.80;3.70;;;;;;;;;;5014962;28;20461;-88
2021/08/03 02:09:16;;;;;;;6.93;3.88;;;;;;;;;;5012628;28;20045;-89
2021/08/03 02:11:43;;;;;;;9.73;4.05;;;;;;;;;;5013726;28;20447;-89
2021/08/03 02:14:10;;;;;;;5.40;3.90;;;;;;;;;;5020859;28;20046;-88
2021/08/03 02:16:37;;;;;;;5.60;3.80;;;;;;;;;;5020671;28;20053;-88
2021/08/03 02:19:04;;;;;;;9.10;5.30;;;;;;;;;;5016812;28;20115;-88
2021/08/03 02:21:30;;;;;;;17.85;8.40;;;;;;;;;;5019039;28;20097;-89
2021/08/03 02:23:56;;;;;;;12.85;5.68;;;;;;;;;;5014594;28;20509;-89
2021/08/03 02:26:23;;;;;;;16.83;7.75;;;;;;;;;;5019233;28;20064;-88
2021/08/03 02:28:49;;;;;;;20.45;8.95;;;;;;;;;;5020956;28;20054;-88
2021/08/03 02:31:21;;;;;;;10.50;5.47;;;;;;;;;;5016630;28;20111;-88
2021/08/03 02:34:10;;;;;;;27.00;11.65;;;;;;;;;;5014003;28;20397;-88
2021/08/03 02:36:41;;;;;;;44.88;17.95;;;;;;;;;;4993204;28;20125;-88
2021/08/03 02:39:07;;;;;;;25.42;12.48;;;;;;;;;;5015910;28;20478;-88
2021/08/03 02:41:34;;;;;;;24.00;10.00;;;;;;;;;;5050006;28;20069;-87
2021/08/03 02:44:01;;;;;;;15.63;8.55;;;;;;;;;;5008704;28;20057;-88
2021/08/03 02:46:30;;;;;;;14.20;7.10;;;;;;;;;;5020165;28;20497;-88
2021/08/03 02:49:08;;;;;;;21.95;9.98;;;;;;;;;;5028033;28;20053;-89
2021/08/03 02:51:36;;;;;;;20.88;10.02;;;;;;;;;;5034309;28;20056;-88
2021/08/03 02:54:25;;;;;;;12.60;7.47;;;;;;;;;;4998820;28;20136;-88
2021/08/03 02:56:54;;;;;;;18.48;9.02;;;;;;;;;;5009349;28;20126;-88
2021/08/03 02:59:21;;;;;;;16.60;8.60;;;;;;;;;;5030458;28;20045;-89
2021/08/03 03:01:47;;;;;;;13.27;7.20;;;;;;;;;;5014347;28;20056;-88
2021/08/03 03:04:32;;;;;;;12.07;7.32;;;;;;;;;;5015850;28;20243;-88
2021/08/03 03:07:02;;;;;;;11.65;7.18;;;;;;;;;;4997052;28;20129;-88
2021/08/03 03:09:29;;;;;;;7.63;5.28;;;;;;;;;;5016546;28;20053;-89
2021/08/03 03:11:56;;;;;;;6.13;4.72;;;;;;;;;;5020333;28;20048;-89
2021/08/03 03:14:23;;;;;;;5.75;4.40;;;;;;;;;;5018351;28;20121;-88
2021/08/03 03:16:51;;;;;;;15.00;8.65;;;;;;;;;;4997424;28;20066;-88
2021/08/03 03:19:18;;;;;;;8.90;6.10;;;;;;;;;;5022584;28;20362;-88
2021/08/03 03:21:46;;;;;;;20.75;10.57;;;;;;;;;;5020351;28;20128;-88
2021/08/03 03:24:12;;;;;;;13.35;7.43;;;;;;;;;;5018565;28;20080;-88
2021/08/03 03:26:38;;;;;;;9.90;5.97;;;;;;;;;;5018981;28;20046;-88
2021/08/03 03:29:06;;;;;;;11.00;6.00;;;;;;;;;;5000464;28;20050;-89
2021/08/03 03:31:33;;;;;;;7.88;5.20;;;;;;;;;;5013872;28;20049;-89
2021/08/03 03:34:03;;;;;;;8.25;5.68;;;;;;;;;;5002975;28;20073;-89
2021/08/03 03:36:30;;;;;;;8.02;5.05;;;;;;;;;;5015529;28;20057;-88
2021/08/03 03:38:59;;;;;;;5.90;4.60;;;;;;;;;;4999534;28;20074;-89
2021/08/03 03:41:28;;;;;;;4.82;4.25;;;;;;;;;;5007208;28;20077;-88
2021/08/03 03:43:55;;;;;;;6.15;4.20;;;;;;;;;;5034463;28;20050;-89
2021/08/03 03:46:22;;;;;;;5.80;4.03;;;;;;;;;;5014875;28;20064;-88
2021/08/03 03:48:53;;;;;;;6.72;4.35;;;;;;;;;;5020923;28;20050;-88
2021/08/03 03:51:22;;;;;;;11.15;5.82;;;;;;;;;;5035032;28;20056;-88
2021/08/03 03:53:56;;;;;;;9.15;5.70;;;;;;;;;;5015266;28;20053;-88
2021/08/03 03:56:25;;;;;;;7.57;4.80;;;;;;;;;;5013503;28;20085;-87
2021/08/03 03:58:52;;;;;;;7.40;4.90;;;;;;;;;;5015904;28;20096;-88
2021/08/03 04:01:20;;;;;;;9.00;5.05;;;;;;;;;;5012259;28;20050;-88
2021/08/03 04:03:46;;;;;;;7.07;5.00;;;;;;;;;;5017258;28;20103;-89
2021/08/03 04:06:13;;;;;;;6.82;4.88;;;;;;;;;;5007440;28;20061;-88
2021/08/03 04:08:39;;;;;;;6.60;5.10;;;;;;;;;;5012680;28;20505;-88
2021/08/03 04:11:06;;;;;;;6.38;4.95;;;;;;;;;;5019934;28;20768;-88
2021/08/03 04:13:32;;;;;;;8.73;6.78;;;;;;;;;;5019910;28;20057;-89
2021/08/03 04:15:58;;;;;;;11.15;10.05;;;;;;;;;;5012238;28;20049;-89
2021/08/03 04:18:28;;;;;;;10.05;8.23;;;;;;;;;;5013764;28;20077;-88
2021/08/03 04:20:54;;;;;;;9.32;5.50;;;;;;;;;;5012072;28;20460;-88
2021/08/03 04:23:20;;;;;;;7.40;5.18;;;;;;;;;;5019224;28;20045;-88
2021/08/03 04:25:46;;;;;;;7.38;5.10;;;;;;;;;;5016014;28;20045;-88
2021/08/03 04:28:15;;;;;;;8.75;4.78;;;;;;;;;;5013213;28;20068;-89
2021/08/03 04:30:42;;;;;;;7.65;4.45;;;;;;;;;;5014950;28;20062;-88
2021/08/03 04:33:08;;;;;;;6.88;4.72;;;;;;;;;;4999750;28;20049;-88
2021/08/03 04:35:34;;;;;;;6.53;4.22;;;;;;;;;;5016577;28;20393;-88
2021/08/03 04:38:01;;;;;;;7.15;4.93;;;;;;;;;;5017670;28;20041;-89
2021/08/03 04:40:28;;;;;;;6.88;4.95;;;;;;;;;;5016830;28;20438;-88
2021/08/03 04:42:54;;;;;;;5.80;5.03;;;;;;;;;;5017931;28;20433;-88
2021/08/03 04:45:20;;;;;;;6.57;4.53;;;;;;;;;;5018553;28;20042;-88
2021/08/03 04:47:48;;;;;;;8.43;5.13;;;;;;;;;;5017928;28;20528;-88
2021/08/03 04:50:15;;;;;;;7.22;5.47;;;;;;;;;;5018170;28;20103;-88
2021/08/03 04:52:41;;;;;;;7.05;5.05;;;;;;;;;;5017576;28;20050;-88
2021/08/03 04:55:08;;;;;;;9.35;6.88;;;;;;;;;;5012737;28;20425;-88
2021/08/03 04:57:35;;;;;;;6.85;4.57;;;;;;;;;;5018246;28;20540;-88
2021/08/03 05:00:01;;;;;;;6.78;5.07;;;;;;;;;;5018727;28;20053;-88
2021/08/03 05:02:27;;;;;;;7.50;5.32;;;;;;;;;;5016513;28;20500;-88
2021/08/03 05:04:53;;;;;;;7.82;5.72;;;;;;;;;;5019476;28;20053;-88
2021/08/03 05:07:20;;;;;;;9.82;6.30;;;;;;;;;;5015348;28;20049;-88
2021/08/03 05:09:46;;;;;;;9.88;7.10;;;;;;;;;;5043328;28;20077;-88
2021/08/03 05:12:12;;;;;;;11.85;7.03;;;;;;;;;;5014711;28;20148;-87
2021/08/03 05:14:38;;;;;;;7.90;6.55;;;;;;;;;;5018996;28;20567;-88
2021/08/03 05:17:04;;;;;;;6.78;5.32;;;;;;;;;;5012126;28;20067;-88
2021/08/03 05:19:31;;;;;;;7.35;5.10;;;;;;;;;;5006363;28;20053;-88
2021/08/03 05:21:57;;;;;;;7.25;5.28;;;;;;;;;;5021473;28;20060;-88
2021/08/03 05:24:26;;;;;;;10.32;6.20;;;;;;;;;;5021546;28;20128;-88
2021/08/03 05:26:53;;;;;;;14.88;7.53;;;;;;;;;;5016603;28;20088;-87
2021/08/03 05:29:19;;;;;;;17.38;9.30;;;;;;;;;;5011877;28;20062;-88
2021/08/03 05:31:45;;;;;;;9.35;6.10;;;;;;;;;;5000756;28;20088;-88
2021/08/03 05:34:11;;;;;;;13.43;5.85;;;;;;;;;;5009153;28;20054;-88
2021/08/03 05:36:39;;;;;;;14.43;8.10;;;;;;;;;;5032162;28;20519;-88
2021/08/03 05:39:06;;;;;;;6.07;4.95;;;;;;;;;;5019835;28;20053;-87
2021/08/03 05:41:33;;;;;;;9.38;5.80;;;;;;;;;;5015038;28;20511;-88
2021/08/03 05:43:59;;;;;;;10.45;5.40;;;;;;;;;;5020913;28;20056;-89
2021/08/03 05:46:26;;;;;;;6.93;4.65;;;;;;;;;;5022488;28;20099;-87
2021/08/03 05:48:52;;;;;;;6.72;4.30;;;;;;;;;;5019410;28;20796;-88
2021/08/03 05:51:18;;;;;;;6.25;4.32;;;;;;;;;;5011795;28;20057;-88
2021/08/03 05:53:44;;;;;;;5.00;3.80;;;;;;;;;;5017967;28;20087;-87
2021/08/03 05:56:11;;;;;;;6.07;4.10;;;;;;;;;;5013578;28;20500;-87
2021/08/03 05:58:37;;;;;;;6.03;3.75;;;;;;;;;;5015276;28;20117;-87
2021/08/03 06:01:03;;;;;;;11.90;5.85;;;;;;;;;;5009561;28;20053;-87
2021/08/03 06:03:29;;;;;;;7.75;4.82;;;;;;;;;;5021502;28;20058;-87
2021/08/03 06:05:55;;;;;;;9.35;4.90;;;;;;;;;;5016455;28;20128;-88
2021/08/03 06:08:26;;;;;;;5.80;4.35;;;;;;;;;;5013942;28;20057;-88
2021/08/03 06:10:53;;;;;;;9.10;5.80;;;;;;;;;;5005727;28;20068;-87
2021/08/03 06:13:21;;;;;;;5.63;4.03;;;;;;;;;;5053846;28;20045;-88
2021/08/03 06:15:49;;;;;;;6.00;3.90;;;;;;;;;;5017447;28;20053;-88
2021/08/03 06:18:32;;;;;;;6.05;3.63;;;;;;;;;;5030292;28;20044;-88
2021/08/03 06:20:59;;;;;;;6.38;3.80;;;;;;;;;;4996064;28;20141;-89
2021/08/03 06:23:25;;;;;;;7.65;4.97;;;;;;;;;;4997258;28;20046;-87
2021/08/03 06:25:53;;;;;;;5.40;4.30;;;;;;;;;;5016618;28;20050;-88
2021/08/03 06:28:23;;;;;;;6.40;4.10;;;;;;;;;;5011243;28;20369;-88
2021/08/03 06:30:50;;;;;;;7.30;3.85;;;;;;;;;;5016408;28;20081;-89
2021/08/03 06:33:17;;;;;;;6.07;3.70;;;;;;;;;;5005893;28;20179;-89
2021/08/03 06:35:47;;;;;;;6.65;3.88;;;;;;;;;;5008105;28;20116;-89
2021/08/03 06:38:14;;;;;;;4.53;2.70;;;;;;;;;;5005414;28;20057;-89
2021/08/03 06:40:51;;;;;;;3.30;2.80;;;;;;;;;;5004279;28;20047;-90
2021/08/03 06:43:23;;;;;;;5.35;2.75;;;;;;;;;;5023603;28;20113;-89
2021/08/03 06:45:54;;;;;;;4.53;2.95;;;;;;;;;;5003827;28;20498;-89
2021/08/03 06:48:23;;;;;;;4.35;2.63;;;;;;;;;;5018970;28;20049;-89
2021/08/03 06:51:02;;;;;;;6.10;2.50;;;;;;;;;;5011000;28;20440;-87
2021/08/03 06:53:29;;;;;;;3.55;2.33;;;;;;;;;;5009052;28;20100;-86
2021/08/03 06:55:57;;;;;;;5.35;2.55;;;;;;;;;;5018326;28;20077;-86
2021/08/03 06:58:43;;;;;;;5.90;2.40;;;;;;;;;;5025119;28;20504;-87
2021/08/03 07:01:14;;;;;;;4.70;2.78;;;;;;;;;;5014958;28;20054;-87
2021/08/03 07:03:45;;;;;;;4.22;2.10;;;;;;;;;;5012510;28;20062;-87
2021/08/03 07:06:13;;;;;;;3.83;2.10;;;;;;;;;;5005774;28;20045;-87
2021/08/03 07:08:40;;;;;;;3.92;2.92;;;;;;;;;;5017382;28;20504;-88
2021/08/03 07:11:07;;;;;;;3.80;1.80;;;;;;;;;;5017529;28;20081;-88
2021/08/03 07:13:33;;;;;;;4.22;1.88;;;;;;;;;;5013209;28;20072;-87
2021/08/03 07:16:02;;;;;;;2.83;1.30;;;;;;;;;;5014004;28;20054;-87
2021/08/03 07:18:28;;;;;;;4.82;1.73;;;;;;;;;;5017178;28;20116;-86
2021/08/03 07:20:55;;;;;;;2.88;1.60;;;;;;;;;;5014152;28;20049;-86
2021/08/03 07:23:21;;;;;;;3.65;1.67;;;;;;;;;;5017609;28;20049;-88
2021/08/03 07:25:48;;;;;;;3.20;2.28;;;;;;;;;;5025530;28;20049;-86
2021/08/03 07:28:14;;;;;;;2.95;2.03;;;;;;;;;;5019508;28;20053;-95
2021/08/03 07:30:44;;;;;;;3.75;1.90;;;;;;;;;;5011973;28;20054;-90
2021/08/03 07:33:11;;;;;;;4.55;2.10;;;;;;;;;;5013999;28;20056;-89
2021/08/03 07:35:39;;;;;;;3.42;2.10;;;;;;;;;;5016825;28;20054;-90
2021/08/03 07:38:05;;;;;;;4.28;2.20;;;;;;;;;;5022441;28;20065;-91
2021/08/03 07:40:32;;;;;;;4.90;2.10;;;;;;;;;;5047074;28;20049;-90
2021/08/03 07:42:58;;;;;;;3.72;1.90;;;;;;;;;;5018485;28;20100;-87
2021/08/03 07:45:25;;;;;;;4.30;1.80;;;;;;;;;;5016933;28;20042;-91
2021/08/03 07:47:58;;;;;;;3.55;1.50;;;;;;;;;;5013210;28;20058;-90
2021/08/03 07:50:35;;;;;;;2.35;1.90;;;;;;;;;;5005652;28;20050;-91
2021/08/03 07:53:01;;;;;;;2.80;1.90;;;;;;;;;;5016273;28;20057;-88
2021/08/03 07:55:27;;;;;;;2.97;1.80;;;;;;;;;;5019688;28;20507;-90
2021/08/03 07:57:54;;;;;;;2.35;1.50;;;;;;;;;;5021126;28;20054;-90
2021/08/03 08:00:20;;;;;;;3.08;1.70;;;;;;;;;;5007345;28;20231;-90
2021/08/03 08:02:46;;;;;;;2.95;1.60;;;;;;;;;;5010563;28;20050;-88
2021/08/03 08:05:12;;;;;;;2.25;1.50;;;;;;;;;;5020467;28;20075;-89
2021/08/03 08:07:38;;;;;;;3.30;1.75;;;;;;;;;;5022163;28;20053;-89
2021/08/03 08:10:05;;;;;;;2.58;1.80;;;;;;;;;;5013009;28;20461;-87
2021/08/03 08:12:31;;;;;;;3.33;1.70;;;;;;;;;;5011767;28;20072;-88
2021/08/03 08:14:57;;;;;;;4.28;1.80;;;;;;;;;;5015390;28;20136;-87
2021/08/03 08:17:23;;;;;;;3.15;2.05;;;;;;;;;;5019336;28;20067;-85
2021/08/03 08:19:50;;;;;;;3.75;1.80;;;;;;;;;;5014116;28;20052;-86
2021/08/03 08:22:16;;;;;;;2.10;1.90;;;;;;;;;;4982905;28;20054;-86
2021/08/03 08:24:42;;;;;;;2.55;1.20;;;;;;;;;;5007300;28;20144;-86
2021/08/03 08:27:08;;;;;;;3.85;1.50;;;;;;;;;;5005105;28;20773;-86
2021/08/03 08:29:34;;;;;;;3.63;1.50;;;;;;;;;;5016961;28;20068;-86
2021/08/03 08:32:01;;;;;;;6.13;2.00;;;;;;;;;;5016726;28;20551;-88
2021/08/03 08:34:27;;;;;;;3.83;1.55;;;;;;;;;;5019304;28;20050;-86
2021/08/03 08:36:53;;;;;;;1.45;1.10;;;;;;;;;;5020847;28;20053;-86
2021/08/03 08:39:19;;;;;;;2.13;1.13;;;;;;;;;;5023154;28;20060;-87
2021/08/03 08:41:45;;;;;;;1.98;1.20;;;;;;;;;;5007487;28;20053;-86
2021/08/03 08:44:11;;;;;;;4.35;1.55;;;;;;;;;;5017289;28;20050;-86
2021/08/03 08:46:40;;;;;;;1.83;1.23;;;;;;;;;;5020134;28;20061;-87
2021/08/03 08:49:07;;;;;;;2.33;1.20;;;;;;;;;;5004671;28;20050;-86
2021/08/03 08:51:33;;;;;;;1.92;1.00;;;;;;;;;;5011940;28;20136;-87
2021/08/03 08:54:00;;;;;;;2.58;2.00;;;;;;;;;;5017232;28;20493;-88
2021/08/03 08:56:29;;;;;;;4.53;1.83;;;;;;;;;;5008441;28;20054;-88
2021/08/03 08:58:55;;;;;;;3.72;1.50;;;;;;;;;;5010104;28;20049;-88
2021/08/03 09:01:22;;;;;;;2.25;1.50;;;;;;;;;;5008916;28;20065;-87
2021/08/03 09:03:48;;;;;;;3.15;1.63;;;;;;;;;;5005255;28;20054;-86
2021/08/03 09:06:18;;;;;;;1.90;1.38;;;;;;;;;;5010612;28;20049;-86
2021/08/03 09:08:45;;;;;;;3.28;1.50;;;;;;;;;;5015830;28;20571;-86
2021/08/03 09:11:12;;;;;;;1.90;1.50;;;;;;;;;;5006097;28;20374;-87
2021/08/03 09:13:48;;;;;;;4.55;1.30;;;;;;;;;;5011158;28;20551;-86
2021/08/03 09:16:15;;;;;;;2.50;1.33;;;;;;;;;;5018629;28;20045;-86
2021/08/03 09:18:42;;;;;;;2.13;1.20;;;;;;;;;;5018908;28;20050;-87
2021/08/03 09:21:17;;;;;;;1.95;1.30;;;;;;;;;;5013903;28;20102;-88
2021/08/03 09:23:45;;;;;;;2.65;1.50;;;;;;;;;;5021356;28;20141;-87
2021/08/03 09:26:12;;;;;;;4.50;1.48;;;;;;;;;;5020039;28;20053;-87
2021/08/03 09:28:57;;;;;;;2.25;1.40;;;;;;;;;;5045241;28;20045;-87
2021/08/03 09:31:23;;;;;;;1.65;1.20;;;;;;;;;;5013173;28;20057;-87
2021/08/03 09:33:49;;;;;;;3.47;1.90;;;;;;;;;;5023336;28;20046;-86
2021/08/03 09:36:15;;;;;;;3.58;1.70;;;;;;;;;;5047944;28;20046;-86
2021/08/03 09:38:42;;;;;;;4.43;1.38;;;;;;;;;;5040533;28;20151;-86
2021/08/03 09:41:09;;;;;;;4.40;1.65;;;;;;;;;;5012553;28;20045;-86
2021/08/03 09:43:35;;;;;;;3.75;1.77;;;;;;;;;;5019535;28;20057;-87
2021/08/03 09:46:02;;;;;;;2.42;1.20;;;;;;;;;;5021031;28;20084;-88
2021/08/03 09:48:29;;;;;;;2.45;1.50;;;;;;;;;;5019491;28;20050;-87
2021/08/03 09:51:00;;;;;;;3.65;1.48;;;;;;;;;;5005506;28;20042;-86
2021/08/03 09:53:44;;;;;;;4.75;1.83;;;;;;;;;;5022300;28;20140;-86
2021/08/03 09:56:12;;;;;;;1.50;1.40;;;;;;;;;;5000578;28;20124;-87
2021/08/03 09:58:51;;;;;;;2.53;1.30;;;;;;;;;;5013126;28;20097;-86
2021/08/03 10:01:26;;;;;;;2.33;1.45;;;;;;;;;;5017566;28;20056;-86
2021/08/03 10:03:53;;;;;;;2.80;1.30;;;;;;;;;;5020592;28;20053;-87
2021/08/03 10:06:20;;;;;;;3.15;1.30;;;;;;;;;;5028974;28;20060;-86
2021/08/03 10:08:49;;;;;;;2.33;1.52;;;;;;;;;;5030266;28;20085;-86
2021/08/03 10:11:16;;;;;;;2.65;1.48;;;;;;;;;;5031282;28;20049;-86
2021/08/03 10:13:43;;;;;;;1.63;1.40;;;;;;;;;;5031734;28;20056;-87
2021/08/03 10:16:09;;;;;;;2.97;1.40;;;;;;;;;;5030600;28;20053;-86
2021/08/03 10:18:40;;;;;;;2.75;1.77;;;;;;;;;;5015341;28;20054;-87
2021/08/03 10:21:06;;;;;;;3.50;1.60;;;;;;;;;;5011106;28;20049;-87
2021/08/03 10:23:34;;;;;;;3.35;1.55;;;;;;;;;;5024272;28;20057;-88
2021/08/03 10:26:00;;;;;;;3.42;1.40;;;;;;;;;;5030318;28;20058;-88
2021/08/03 10:28:28;;;;;;;2.10;1.40;;;;;;;;;;4999731;28;20058;-88
2021/08/03 10:30:56;;;;;;;2.40;1.40;;;;;;;;;;5024094;28;20057;-88
2021/08/03 10:33:41;;;;;;;3.80;1.50;;;;;;;;;;5029924;28;20648;-88
2021/08/03 10:36:07;;;;;;;2.53;1.40;;;;;;;;;;4998593;28;20099;-88
2021/08/03 10:38:33;;;;;;;1.70;1.15;;;;;;;;;;5001323;28;20054;-87
2021/08/03 10:41:04;;;;;;;2.53;1.60;;;;;;;;;;5001594;28;20057;-88
2021/08/03 10:43:36;;;;;;;2.90;1.40;;;;;;;;;;5001640;28;20049;-88
2021/08/03 10:46:05;;;;;;;2.67;1.30;;;;;;;;;;5012767;28;20077;-89
2021/08/03 10:48:37;;;;;;;2.50;1.40;;;;;;;;;;5007215;28;20129;-87
2021/08/03 10:51:15;;;;;;;3.05;1.40;;;;;;;;;;5009312;28;20050;-88
2021/08/03 10:54:00;;;;;;;2.58;1.60;;;;;;;;;;5009861;28;20407;-87
2021/08/03 10:56:27;;;;;;;2.80;1.30;;;;;;;;;;4997459;28;20062;-87
2021/08/03 10:59:12;;;;;;;3.67;1.40;;;;;;;;;;4982694;28;20788;-88
2021/08/03 11:01:45;;;;;;;2.28;1.30;;;;;;;;;;5022969;28;20064;-87
2021/08/03 11:04:30;;;;;;;2.53;1.25;;;;;;;;;;5020291;28;20077;-87
2021/08/03 11:06:56;;;;;;;2.00;1.40;;;;;;;;;;5000011;28;20120;-86
2021/08/03 11:09:32;;;;;;;3.53;1.20;;;;;;;;;;5025667;28;20057;-87
2021/08/03 11:12:17;;;;;;;3.88;1.40;;;;;;;;;;5006820;28;20065;-87
2021/08/03 11:14:43;;;;;;;2.92;1.23;;;;;;;;;;5025248;28;20072;-90
2021/08/03 11:17:09;;;;;;;1.67;1.10;;;;;;;;;;5018673;28;20046;-90
2021/08/03 11:19:36;;;;;;;2.88;1.48;;;;;;;;;;5021502;28;20049;-91
2021/08/03 11:22:18;;;;;;;2.47;1.23;;;;;;;;;;4997029;28;20055;-91
2021/08/03 11:24:47;;;;;;;3.03;1.30;;;;;;;;;;4936131;28;21512;-92
2021/08/03 11:27:27;;;;;;;2.42;1.20;;;;;;;;;;4975252;28;20089;-95
2021/08/03 11:29:53;;;;;;;1.95;1.35;;;;;;;;;;4986287;28;20062;-95
2021/08/03 11:32:21;;;;;;;1.60;1.30;;;;;;;;;;5012923;28;20123;-95
2021/08/03 11:34:48;;;;;;;2.67;1.50;;;;;;;;;;5018957;28;20104;-95
2021/08/03 11:37:14;;;;;;;3.35;1.58;;;;;;;;;;5018839;28;20050;-93
2021/08/03 11:39:43;;;;;;;2.63;1.70;;;;;;;;;;5030891;28;20057;-95
2021/08/03 11:42:10;;;;;;;3.67;1.50;;;;;;;;;;5030698;28;20073;-95
2021/08/03 11:44:37;;;;;;;3.25;1.33;;;;;;;;;;5033168;28;20080;-95
2021/08/03 11:47:05;;;;;;;1.70;1.40;;;;;;;;;;5030947;28;20053;-94
2021/08/03 11:49:41;;;;;;;2.92;1.63;;;;;;;;;;5022575;28;20053;-95
2021/08/03 11:52:10;;;;;;;2.10;1.40;;;;;;;;;;5022060;28;20056;-95
2021/08/03 11:54:36;;;;;;;2.88;1.30;;;;;;;;;;5029921;28;20046;-95
2021/08/03 11:57:18;;;;;;;2.25;1.40;;;;;;;;;;5031969;28;20055;-89
2021/08/03 11:59:44;;;;;;;2.70;1.50;;;;;;;;;;5031614;28;20412;-94
2021/08/03 12:02:11;;;;;;;2.10;1.40;;;;;;;;;;5031492;28;20072;-95
2021/08/03 12:04:37;;;;;;;1.92;1.30;;;;;;;;;;5030433;28;20052;-91
2021/08/03 12:07:04;;;;;;;3.15;1.45;;;;;;;;;;5031614;28;20053;-91
2021/08/03 12:09:30;;;;;;;1.90;1.33;;;;;;;;;;5011698;28;20092;-94
2021/08/03 12:11:59;;;;;;;2.65;1.30;;;;;;;;;;5009735;28;20053;-95
2021/08/03 12:14:33;;;;;;;2.30;1.40;;;;;;;;;;5013481;28;20045;-91
2021/08/03 12:16:59;;;;;;;2.17;1.23;;;;;;;;;;5026001;28;20453;-94
2021/08/03 12:19:28;;;;;;;2.15;1.40;;;;;;;;;;5015222;28;20072;-94
2021/08/03 12:21:55;;;;;;;2.83;1.65;;;;;;;;;;5025778;28;20486;-95
2021/08/03 12:24:21;;;;;;;1.70;1.27;;;;;;;;;;5025294;28;20046;-96
2021/08/03 12:26:47;;;;;;;2.55;1.33;;;;;;;;;;5011741;28;20045;-94
2021/08/03 12:29:13;;;;;;;2.30;1.30;;;;;;;;;;5022745;28;20063;-94
2021/08/03 12:31:41;;;;;;;2.00;1.20;;;;;;;;;;5010389;28;20156;-95
2021/08/03 12:34:16;;;;;;;3.63;1.30;;;;;;;;;;5018412;28;20103;-90
2021/08/03 12:36:50;;;;;;;1.95;1.60;;;;;;;;;;5013288;28;20048;-92
2021/08/03 12:39:23;;;;;;;2.93;1.90;;;;;;;;;;5024188;28;20057;-93
2021/08/03 12:42:05;;;;;;;2.35;1.50;;;;;;;;;;5020775;28;20060;-92
2021/08/03 12:44:33;;;;;;;2.58;1.40;;;;;;;;;;5011819;28;20049;-94
2021/08/03 12:47:10;;;;;;;3.20;1.83;;;;;;;;;;5017776;28;20046;-93
2021/08/03 12:49:37;;;;;;;1.88;1.60;;;;;;;;;;5010678;28;20067;-94
2021/08/03 12:52:07;;;;;;;3.20;1.40;;;;;;;;;;5016374;28;20379;-93
2021/08/03 12:54:34;;;;;;;3.25;1.40;;;;;;;;;;5030313;28;20045;-93
2021/08/03 12:57:00;;;;;;;2.50;1.40;;;;;;;;;;5030124;28;20152;-95
2021/08/03 12:59:40;;;;;;;2.38;1.75;;;;;;;;;;5027882;28;20049;-92
2021/08/03 13:02:07;;;;;;;3.08;2.03;;;;;;;;;;5028274;28;20049;-89
2021/08/03 13:04:34;;;;;;;3.13;1.55;;;;;;;;;;5028737;28;20119;-94
2021/08/03 13:07:00;;;;;;;3.05;1.40;;;;;;;;;;5030520;28;20049;-95
2021/08/03 13:09:27;;;;;;;2.58;1.42;;;;;;;;;;5026286;28;20172;-92
2021/08/03 13:11:54;;;;;;;3.42;1.30;;;;;;;;;;4993162;28;20111;-91
2021/08/03 13:14:20;;;;;;;3.05;1.40;;;;;;;;;;5019458;28;20057;-92
2021/08/03 13:16:47;;;;;;;1.92;1.33;;;;;;;;;;4988653;28;20141;-91
2021/08/03 13:19:13;;;;;;;2.92;1.40;;;;;;;;;;4999206;28;20103;-91
2021/08/03 13:21:39;;;;;;;3.38;1.48;;;;;;;;;;4982036;28;20108;-90
2021/08/03 13:24:06;;;;;;;3.60;1.42;;;;;;;;;;4965693;28;20062;-90
2021/08/03 13:26:32;;;;;;;3.47;1.40;;;;;;;;;;5005211;28;20096;-90
2021/08/03 13:29:04;;;;;;;3.35;1.55;;;;;;;;;;4990837;28;20064;-91
2021/08/03 13:31:32;;;;;;;3.28;1.50;;;;;;;;;;4999209;28;20056;-92
2021/08/03 13:33:59;;;;;;;1.98;1.30;;;;;;;;;;4979209;28;20069;-94
2021/08/03 13:36:25;;;;;;;2.88;1.50;;;;;;;;;;4996768;28;20053;-91
2021/08/03 13:38:51;;;;;;;3.33;1.50;;;;;;;;;;5008488;28;20049;-92
2021/08/03 13:41:20;;;;;;;1.77;1.40;;;;;;;;;;4979829;28;20124;-92
2021/08/03 13:43:47;;;;;;;3.03;1.60;;;;;;;;;;4960621;28;20054;-92
2021/08/03 13:46:13;;;;;;;1.80;1.30;;;;;;;;;;4972915;28;20056;-91
2021/08/03 13:48:48;;;;;;;1.65;1.30;;;;;;;;;;4993223;28;20053;-92
2021/08/03 13:51:14;;;;;;;2.53;1.40;;;;;;;;;;5002656;28;20069;-90
2021/08/03 13:53:40;;;;;;;2.08;1.50;;;;;;;;;;5004899;28;20057;-90
2021/08/03 13:56:10;;;;;;;3.17;1.58;;;;;;;;;;5009112;28;20072;-89
2021/08/03 13:58:36;;;;;;;1.92;1.45;;;;;;;;;;5026120;28;20579;-89
2021/08/03 14:01:05;;;;;;;2.47;1.55;;;;;;;;;;5025845;28;20079;-89
2021/08/03 14:03:32;;;;;;;4.15;1.60;;;;;;;;;;5019005;28;20049;-89
2021/08/03 14:06:00;;;;;;;3.10;1.45;;;;;;;;;;5030071;28;20060;-89
2021/08/03 14:08:29;;;;;;;2.08;1.50;;;;;;;;;;5026679;28;20049;-91
2021/08/03 14:10:55;;;;;;;2.70;1.45;;;;;;;;;;5009246;28;20405;-90
2021/08/03 14:13:22;;;;;;;2.22;1.50;;;;;;;;;;5024277;28;20057;-88
2021/08/03 14:15:53;;;;;;;2.47;1.63;;;;;;;;;;5017880;28;20103;-88
2021/08/03 14:18:20;;;;;;;2.38;1.40;;;;;;;;;;4998110;28;20058;-88
2021/08/03 14:20:47;;;;;;;3.13;1.65;;;;;;;;;;5025258;28;20058;-89
2021/08/03 14:23:13;;;;;;;1.90;1.70;;;;;;;;;;5021951;28;21778;-89
2021/08/03 14:25:40;;;;;;;2.45;1.75;;;;;;;;;;5028010;28;20157;-88
2021/08/03 14:28:06;;;;;;;2.40;1.48;;;;;;;;;;5019373;28;20069;-88
2021/08/03 14:30:33;;;;;;;1.90;1.23;;;;;;;;;;5030828;28;20386;-88
2021/08/03 14:33:00;;;;;;;2.13;1.45;;;;;;;;;;5026445;28;20521;-89
2021/08/03 14:35:27;;;;;;;2.28;1.30;;;;;;;;;;5009704;28;20112;-89
2021/08/03 14:37:54;;;;;;;2.28;1.42;;;;;;;;;;5020659;28;20049;-88
2021/08/03 14:40:20;;;;;;;3.03;1.60;;;;;;;;;;5015992;28;20057;-88
2021/08/03 14:42:47;;;;;;;2.85;1.70;;;;;;;;;;5024516;28;20071;-87
2021/08/03 14:45:13;;;;;;;3.17;1.38;;;;;;;;;;5027875;28;20561;-88
2021/08/03 14:47:39;;;;;;;3.38;1.48;;;;;;;;;;5021878;28;20052;-88
2021/08/03 14:50:06;;;;;;;2.08;1.50;;;;;;;;;;5018765;28;20048;-88